Marathon, Florida
Current Conditions -  °F | °C
As of 11:53 PM on Wednesday 22 Oct 2014 (Local Time) from KMTH Reporting Station
Light Rain Light Rain  
Wind Chill: 75°   Ceiling: 11000
Heat Index: 75°   Visibility: 10mi
Dew Point: 75°   Wind: 6mph
Humidity: 100%   Direction: 70°ENE
Pressure: 29.93"   Gusts: NA
Location:  24.73°N, 81.04°W
Report Text: KMTH 230353Z AUTO 07005KT 10SM -RA OVC110 24/24 A2993 RMK AO2 RAB20 SLP135 P0002 T02390239 $
Loading
Personal Weather Stations






























Interactive Weather Map
Tropical Storm Tracking
New forecast layout! Learn more

10-Day Weather Forecast

Advertisements
Track Severe Weather on mobile